Time,TemperatureF,DewpointF,PressureIn,WindDirection,WindDirectionDegrees,WindSpeedMPH,WindSpeedGustMPH,Humidity,HourlyPrecipIn,Conditions,Clouds,dailyrainin,SolarRadiationWatts/m^2,SoftwareType,DateUTC
2013-06-01 00:03:00,70.0,59.0,30.49,ESE,112,4.0,9.0,68,0.00,,,0.00,0.000000,,2013-06-01 04:03:00,
2013-06-01 00:33:00,68.0,59.0,30.48,North,355,2.0,9.0,74,0.00,,,0.00,0.000000,,2013-06-01 04:33:00,
2013-06-01 00:42:00,68.0,59.0,30.48,North,355,2.0,9.0,74,0.00,,,0.00,0.000000,,2013-06-01 04:42:00,
2013-06-01 00:53:00,68.0,59.0,30.48,North,355,2.0,9.0,74,0.00,,,0.00,0.000000,,2013-06-01 04:53:00,
2013-06-01 01:02:00,68.0,59.0,30.48,North,355,2.0,9.0,74,0.00,,,0.00,0.000000,,2013-06-01 05:02:00,
2013-06-01 01:32:00,65.0,60.0,30.48,NNE,31,1.0,5.0,84,0.00,,,0.00,0.000000,,2013-06-01 05:32:00,
2013-06-01 01:43:00,65.0,60.0,30.48,NNE,31,1.0,5.0,84,0.00,,,0.00,0.000000,,2013-06-01 05:43:00,
2013-06-01 01:52:00,65.0,60.0,30.48,NNE,31,1.0,5.0,84,0.00,,,0.00,0.000000,,2013-06-01 05:52:00,
2013-06-01 02:01:00,65.0,60.0,30.48,NNE,31,1.0,5.0,84,0.00,,,0.00,0.000000,,2013-06-01 06:01:00,
2013-06-01 02:32:00,63.0,58.0,30.48,NE,48,1.0,3.0,84,0.00,,,0.00,0.000000,,2013-06-01 06:32:00,
2013-06-01 02:42:00,63.0,58.0,30.48,NE,48,1.0,3.0,84,0.00,,,0.00,0.000000,,2013-06-01 06:42:00,
2013-06-01 02:52:00,63.0,58.0,30.48,NE,48,1.0,3.0,84,0.00,,,0.00,0.000000,,2013-06-01 06:52:00,
2013-06-01 03:01:00,63.0,58.0,30.48,NE,48,1.0,3.0,84,0.00,,,0.00,0.000000,,2013-06-01 07:01:00,
2013-06-01 03:32:00,63.0,61.0,30.49,NE,40,2.0,4.0,92,0.00,,,0.00,0.000000,,2013-06-01 07:32:00,
2013-06-01 03:42:00,63.0,61.0,30.49,NE,40,2.0,4.0,92,0.00,,,0.00,0.000000,,2013-06-01 07:42:00,
2013-06-01 03:52:00,63.0,61.0,30.49,NE,40,2.0,4.0,92,0.00,,,0.00,0.000000,,2013-06-01 07:52:00,
2013-06-01 04:02:00,63.0,61.0,30.49,NE,40,2.0,4.0,92,0.00,,,0.00,0.000000,,2013-06-01 08:02:00,
2013-06-01 04:32:00,60.0,58.0,30.48,ESE,117,1.0,4.0,94,0.00,,,0.00,0.000000,,2013-06-01 08:32:00,
2013-06-01 04:42:00,60.0,58.0,30.48,ESE,117,1.0,4.0,94,0.00,,,0.00,0.000000,,2013-06-01 08:42:00,
2013-06-01 04:52:00,60.0,58.0,30.48,ESE,117,1.0,4.0,94,0.00,,,0.00,0.000000,,2013-06-01 08:52:00,
2013-06-01 05:02:00,60.0,58.0,30.48,ESE,117,1.0,4.0,94,0.00,,,0.00,0.000000,,2013-06-01 09:02:00,
2013-06-01 05:33:00,60.0,59.0,30.47,NW,313,1.0,4.0,95,0.00,,,0.00,0.000000,,2013-06-01 09:33:00,
2013-06-01 05:43:00,60.0,59.0,30.47,NW,313,1.0,4.0,95,0.00,,,0.00,0.000000,,2013-06-01 09:43:00,
2013-06-01 05:53:00,60.0,59.0,30.47,NW,313,1.0,4.0,95,0.00,,,0.00,0.000000,,2013-06-01 09:53:00,
2013-06-01 06:02:00,60.0,59.0,30.47,NW,313,1.0,4.0,95,0.00,,,0.00,0.000000,,2013-06-01 10:02:00,
2013-06-01 06:33:00,60.0,59.0,30.46,ENE,60,3.0,7.0,95,0.00,,,0.00,0.000000,,2013-06-01 10:33:00,
2013-06-01 06:42:00,60.0,59.0,30.46,ENE,60,3.0,7.0,95,0.00,,,0.00,0.000000,,2013-06-01 10:42:00,
2013-06-01 06:53:00,60.0,59.0,30.46,ENE,60,3.0,7.0,95,0.00,,,0.00,0.000000,,2013-06-01 10:53:00,
2013-06-01 07:03:00,60.0,59.0,30.46,ENE,60,3.0,7.0,95,0.00,,,0.00,0.000000,,2013-06-01 11:03:00,
2013-06-01 07:33:00,64.0,62.0,30.47,ESE,105,3.0,7.0,92,0.00,,,0.00,14.000000,,2013-06-01 11:33:00,
2013-06-01 07:42:00,64.0,62.0,30.47,ESE,105,3.0,7.0,92,0.00,,,0.00,14.000000,,2013-06-01 11:42:00,
2013-06-01 07:52:00,64.0,62.0,30.47,ESE,105,3.0,7.0,92,0.00,,,0.00,14.000000,,2013-06-01 11:52:00,
2013-06-01 08:01:00,64.0,62.0,30.47,ESE,105,3.0,7.0,92,0.00,,,0.00,14.000000,,2013-06-01 12:01:00,
2013-06-01 08:32:00,71.0,63.0,30.46,SE,137,3.0,10.0,76,0.00,,,0.00,167.000000,,2013-06-01 12:32:00,
2013-06-01 08:42:00,71.0,63.0,30.46,SE,137,3.0,10.0,76,0.00,,,0.00,167.000000,,2013-06-01 12:42:00,
2013-06-01 08:52:00,71.0,63.0,30.46,SE,137,3.0,10.0,76,0.00,,,0.00,167.000000,,2013-06-01 12:52:00,
2013-06-01 09:01:00,71.0,63.0,30.46,SE,137,3.0,10.0,76,0.00,,,0.00,167.000000,,2013-06-01 13:01:00,
2013-06-01 09:32:00,73.0,63.0,30.46,SSW,203,3.0,10.0,72,0.00,,,0.00,191.000000,,2013-06-01 13:32:00,
2013-06-01 09:42:00,73.0,63.0,30.46,SSW,203,3.0,10.0,72,0.00,,,0.00,191.000000,,2013-06-01 13:42:00,
2013-06-01 09:52:00,73.0,63.0,30.46,SSW,203,3.0,10.0,72,0.00,,,0.00,191.000000,,2013-06-01 13:52:00,
2013-06-01 10:02:00,73.0,63.0,30.46,SSW,203,3.0,10.0,72,0.00,,,0.00,191.000000,,2013-06-01 14:02:00,
2013-06-01 10:32:00,76.0,62.0,30.45,SE,129,5.0,11.0,63,0.00,,,0.00,367.000000,,2013-06-01 14:32:00,
2013-06-01 10:42:00,76.0,62.0,30.45,SE,129,5.0,11.0,63,0.00,,,0.00,367.000000,,2013-06-01 14:42:00,
2013-06-01 10:52:00,76.0,62.0,30.45,SE,129,5.0,11.0,63,0.00,,,0.00,367.000000,,2013-06-01 14:52:00,
2013-06-01 11:02:00,76.0,62.0,30.45,SE,129,5.0,11.0,63,0.00,,,0.00,367.000000,,2013-06-01 15:02:00,
2013-06-01 11:33:00,77.0,62.0,30.43,NW,323,7.0,17.0,59,0.00,,,0.00,889.000000,,2013-06-01 15:33:00,
2013-06-01 11:43:00,77.0,62.0,30.43,NW,323,7.0,17.0,59,0.00,,,0.00,889.000000,,2013-06-01 15:43:00,
2013-06-01 11:54:00,77.0,62.0,30.43,NW,323,7.0,17.0,59,0.00,,,0.00,889.000000,,2013-06-01 15:54:00,
2013-06-01 12:03:00,77.0,62.0,30.43,NW,323,7.0,17.0,59,0.00,,,0.00,889.000000,,2013-06-01 16:03:00,
2013-06-01 12:33:00,81.0,62.0,30.43,SSE,152,9.0,18.0,53,0.00,,,0.00,995.000000,,2013-06-01 16:33:00,
2013-06-01 12:42:00,81.0,62.0,30.43,SSE,152,9.0,18.0,53,0.00,,,0.00,995.000000,,2013-06-01 16:42:00,
2013-06-01 12:53:00,81.0,62.0,30.43,SSE,152,9.0,18.0,53,0.00,,,0.00,995.000000,,2013-06-01 16:53:00,
2013-06-01 13:02:00,81.0,62.0,30.43,SSE,152,9.0,18.0,53,0.00,,,0.00,995.000000,,2013-06-01 17:02:00,
2013-06-01 13:32:00,81.0,58.0,30.43,SSE,155,9.0,18.0,46,0.00,,,0.00,1154.000000,,2013-06-01 17:32:00,
2013-06-01 13:43:00,81.0,58.0,30.43,SSE,155,9.0,18.0,46,0.00,,,0.00,1154.000000,,2013-06-01 17:43:00,
2013-06-01 13:52:00,81.0,58.0,30.43,SSE,155,9.0,18.0,46,0.00,,,0.00,1154.000000,,2013-06-01 17:52:00,
2013-06-01 14:01:00,81.0,58.0,30.43,SSE,155,9.0,18.0,46,0.00,,,0.00,1154.000000,,2013-06-01 18:01:00,
2013-06-01 14:32:00,81.0,55.0,30.40,SSE,149,10.0,22.0,41,0.00,,,0.00,1181.000000,,2013-06-01 18:32:00,
2013-06-01 14:42:00,81.0,55.0,30.40,SSE,149,10.0,22.0,41,0.00,,,0.00,1181.000000,,2013-06-01 18:42:00,
2013-06-01 14:52:00,81.0,55.0,30.40,SSE,149,10.0,22.0,41,0.00,,,0.00,1181.000000,,2013-06-01 18:52:00,
2013-06-01 15:02:00,81.0,55.0,30.40,SSE,149,10.0,22.0,41,0.00,,,0.00,1181.000000,,2013-06-01 19:02:00,
2013-06-01 15:32:00,81.0,56.0,30.39,SE,139,13.0,27.0,42,0.00,,,0.00,1154.000000,,2013-06-01 19:32:00,
2013-06-01 15:42:00,81.0,56.0,30.39,SE,139,13.0,27.0,42,0.00,,,0.00,1154.000000,,2013-06-01 19:42:00,
2013-06-01 15:53:00,81.0,56.0,30.39,SE,139,13.0,27.0,42,0.00,,,0.00,1154.000000,,2013-06-01 19:53:00,
2013-06-01 16:02:00,81.0,56.0,30.39,SE,139,13.0,27.0,42,0.00,,,0.00,1154.000000,,2013-06-01 20:02:00,
2013-06-01 16:32:00,80.0,56.0,30.38,SSE,155,14.0,32.0,44,0.00,,,0.00,1054.000000,,2013-06-01 20:32:00,
2013-06-01 16:42:00,80.0,56.0,30.38,SSE,155,14.0,32.0,44,0.00,,,0.00,1054.000000,,2013-06-01 20:42:00,
2013-06-01 16:52:00,80.0,56.0,30.38,SSE,155,14.0,32.0,44,0.00,,,0.00,1054.000000,,2013-06-01 20:52:00,
2013-06-01 17:01:00,80.0,56.0,30.38,SSE,155,14.0,32.0,44,0.00,,,0.00,1054.000000,,2013-06-01 21:01:00,
2013-06-01 17:33:00,81.0,58.0,30.38,SE,135,12.0,29.0,45,0.00,,,0.00,883.000000,,2013-06-01 21:33:00,
2013-06-01 17:43:00,81.0,58.0,30.38,SE,135,12.0,29.0,45,0.00,,,0.00,883.000000,,2013-06-01 21:43:00,
2013-06-01 17:53:00,81.0,58.0,30.38,SE,135,12.0,29.0,45,0.00,,,0.00,883.000000,,2013-06-01 21:53:00,
2013-06-01 18:03:00,81.0,58.0,30.38,SE,135,12.0,29.0,45,0.00,,,0.00,883.000000,,2013-06-01 22:03:00,
2013-06-01 18:33:00,79.0,56.0,30.37,SSE,151,10.0,24.0,46,0.00,,,0.00,695.000000,,2013-06-01 22:33:00,
2013-06-01 18:42:00,79.0,56.0,30.37,SSE,151,10.0,24.0,46,0.00,,,0.00,695.000000,,2013-06-01 22:42:00,
2013-06-01 18:53:00,79.0,56.0,30.37,SSE,151,10.0,24.0,46,0.00,,,0.00,695.000000,,2013-06-01 22:53:00,
2013-06-01 19:02:00,79.0,56.0,30.37,SSE,151,10.0,24.0,46,0.00,,,0.00,695.000000,,2013-06-01 23:02:00,
2013-06-01 19:32:00,77.0,57.0,30.36,SE,146,9.0,24.0,50,0.00,,,0.00,441.000000,,2013-06-01 23:32:00,
2013-06-01 19:42:00,77.0,57.0,30.36,SE,146,9.0,24.0,50,0.00,,,0.00,441.000000,,2013-06-01 23:42:00,
2013-06-01 19:52:00,77.0,57.0,30.36,SE,146,9.0,24.0,50,0.00,,,0.00,441.000000,,2013-06-01 23:52:00,
2013-06-01 20:02:00,77.0,57.0,30.36,SE,146,9.0,24.0,50,0.00,,,0.00,441.000000,,2013-06-02 00:02:00,
2013-06-01 20:32:00,74.0,57.0,30.37,SE,139,9.0,24.0,55,0.00,,,0.00,183.000000,,2013-06-02 00:32:00,
2013-06-01 20:42:00,74.0,57.0,30.37,SE,139,9.0,24.0,55,0.00,,,0.00,183.000000,,2013-06-02 00:42:00,
2013-06-01 20:52:00,74.0,57.0,30.37,SE,139,9.0,24.0,55,0.00,,,0.00,183.000000,,2013-06-02 00:52:00,
2013-06-01 21:01:00,74.0,57.0,30.37,SE,139,9.0,24.0,55,0.00,,,0.00,183.000000,,2013-06-02 01:01:00,
2013-06-01 21:32:00,72.0,58.0,30.39,SSE,161,5.0,15.0,62,0.00,,,0.00,10.000000,,2013-06-02 01:32:00,
2013-06-01 21:42:00,72.0,58.0,30.39,SSE,161,5.0,15.0,62,0.00,,,0.00,10.000000,,2013-06-02 01:42:00,
2013-06-01 21:52:00,72.0,58.0,30.39,SSE,161,5.0,15.0,62,0.00,,,0.00,10.000000,,2013-06-02 01:52:00,
2013-06-01 22:02:00,72.0,58.0,30.39,SSE,161,5.0,15.0,62,0.00,,,0.00,10.000000,,2013-06-02 02:02:00,
2013-06-01 22:32:00,73.0,61.0,30.41,SE,134,5.0,13.0,66,0.00,,,0.00,0.000000,,2013-06-02 02:32:00,
2013-06-01 22:42:00,73.0,61.0,30.41,SE,134,5.0,13.0,66,0.00,,,0.00,0.000000,,2013-06-02 02:42:00,
2013-06-01 22:52:00,73.0,61.0,30.41,SE,134,5.0,13.0,66,0.00,,,0.00,0.000000,,2013-06-02 02:52:00,
2013-06-01 23:02:00,73.0,61.0,30.41,SE,134,5.0,13.0,66,0.00,,,0.00,0.000000,,2013-06-02 03:02:00,
2013-06-01 23:33:00,70.0,60.0,30.41,SE,127,4.0,9.0,71,0.00,,,0.00,0.000000,,2013-06-02 03:33:00,
2013-06-01 23:43:00,70.0,60.0,30.41,SE,127,4.0,9.0,71,0.00,,,0.00,0.000000,,2013-06-02 03:43:00,
2013-06-01 23:53:00,70.0,60.0,30.41,SE,127,4.0,9.0,71,0.00,,,0.00,0.000000,,2013-06-02 03:53:00,